sensor_id;sensor_type;location;lat;lon;timestamp;temperature;humidity
3190;DHT22;1606;51.946;10.558;2023-03-01T00:01:00;1.20;99.90
3190;DHT22;1606;51.946;10.558;2023-03-01T00:03:28;1.10;99.90
3190;DHT22;1606;51.946;10.558;2023-03-01T00:05:57;1.20;99.90
3190;DHT22;1606;51.946;10.558;2023-03-01T00:08:25;1.10;99.90
3190;DHT22;1606;51.946;10.558;2023-03-01T00:11:01;1.20;99.90
3190;DHT22;1606;51.946;10.558;2023-03-01T00:13:29;1.10;99.90
3190;DHT22;1606;51.946;10.558;2023-03-01T00:15:57;1.10;99.90
3190;DHT22;1606;51.946;10.558;2023-03-01T00:18:25;1.20;99.90
3190;DHT22;1606;51.946;10.558;2023-03-01T00:20:54;1.00;99.90
3190;DHT22;1606;51.946;10.558;2023-03-01T00:23:23;1.00;99.90
3190;DHT22;1606;51.946;10.558;2023-03-01T00:25:52;1.00;99.90
3190;DHT22;1606;51.946;10.558;2023-03-01T00:28:20;0.90;99.90
3190;DHT22;1606;51.946;10.558;2023-03-01T00:30:48;1.00;99.90
3190;DHT22;1606;51.946;10.558;2023-03-01T00:33:16;1.00;99.90
3190;DHT22;1606;51.946;10.558;2023-03-01T00:35:44;0.80;99.70
3190;DHT22;1606;51.946;10.558;2023-03-01T00:38:12;0.70;99.90
3190;DHT22;1606;51.946;10.558;2023-03-01T00:40:41;0.50;99.90
3190;DHT22;1606;51.946;10.558;2023-03-01T00:43:08;0.50;99.90
3190;DHT22;1606;51.946;10.558;2023-03-01T00:45:36;0.60;99.90
3190;DHT22;1606;51.946;10.558;2023-03-01T00:48:04;0.60;99.90
3190;DHT22;1606;51.946;10.558;2023-03-01T00:50:33;0.50;99.90
3190;DHT22;1606;51.946;10.558;2023-03-01T00:53:00;0.50;99.90
3190;DHT22;1606;51.946;10.558;2023-03-01T00:55:28;0.70;99.90
3190;DHT22;1606;51.946;10.558;2023-03-01T00:57:57;0.90;99.90
3190;DHT22;1606;51.946;10.558;2023-03-01T01:00:25;0.90;99.90
3190;DHT22;1606;51.946;10.558;2023-03-01T01:02:54;0.70;99.90
3190;DHT22;1606;51.946;10.558;2023-03-01T01:05:22;0.70;99.90
3190;DHT22;1606;51.946;10.558;2023-03-01T01:07:49;0.70;99.90
3190;DHT22;1606;51.946;10.558;2023-03-01T01:10:17;0.80;99.90
3190;DHT22;1606;51.946;10.558;2023-03-01T01:12:45;0.70;99.90
3190;DHT22;1606;51.946;10.558;2023-03-01T01:15:14;0.80;99.90
3190;DHT22;1606;51.946;10.558;2023-03-01T01:17:43;0.80;99.90
3190;DHT22;1606;51.946;10.558;2023-03-01T01:20:11;0.80;99.90
3190;DHT22;1606;51.946;10.558;2023-03-01T01:22:39;0.70;99.90
3190;DHT22;1606;51.946;10.558;2023-03-01T01:25:08;0.70;99.90
3190;DHT22;1606;51.946;10.558;2023-03-01T01:27:35;0.80;99.90
3190;DHT22;1606;51.946;10.558;2023-03-01T01:30:05;0.80;99.90
3190;DHT22;1606;51.946;10.558;2023-03-01T01:32:34;0.90;99.90
3190;DHT22;1606;51.946;10.558;2023-03-01T01:35:01;0.90;99.80
3190;DHT22;1606;51.946;10.558;2023-03-01T01:37:29;0.80;99.80
3190;DHT22;1606;51.946;10.558;2023-03-01T01:39:58;0.80;99.90
3190;DHT22;1606;51.946;10.558;2023-03-01T01:42:27;0.80;99.90
3190;DHT22;1606;51.946;10.558;2023-03-01T01:45:24;0.70;99.70
3190;DHT22;1606;51.946;10.558;2023-03-01T01:47:55;0.60;99.80
3190;DHT22;1606;51.946;10.558;2023-03-01T01:50:25;0.50;99.90
3190;DHT22;1606;51.946;10.558;2023-03-01T01:52:53;0.60;99.90
3190;DHT22;1606;51.946;10.558;2023-03-01T01:55:24;0.70;99.90
3190;DHT22;1606;51.946;10.558;2023-03-01T01:57:57;0.60;99.90
3190;DHT22;1606;51.946;10.558;2023-03-01T02:00:28;0.70;99.90
3190;DHT22;1606;51.946;10.558;2023-03-01T02:02:59;0.70;99.90
3190;DHT22;1606;51.946;10.558;2023-03-01T02:05:33;0.70;99.80
3190;DHT22;1606;51.946;10.558;2023-03-01T02:08:04;0.70;99.30
3190;DHT22;1606;51.946;10.558;2023-03-01T02:10:33;0.60;99.40
3190;DHT22;1606;51.946;10.558;2023-03-01T02:13:02;0.50;99.30
3190;DHT22;1606;51.946;10.558;2023-03-01T02:15:32;0.40;99.50
3190;DHT22;1606;51.946;10.558;2023-03-01T02:18:02;0.20;99.90
3190;DHT22;1606;51.946;10.558;2023-03-01T02:20:35;0.30;99.90
3190;DHT22;1606;51.946;10.558;2023-03-01T02:23:04;0.10;99.90
3190;DHT22;1606;51.946;10.558;2023-03-01T02:25:40;0.10;99.90
3190;DHT22;1606;51.946;10.558;2023-03-01T02:28:22;0.10;99.90
3190;DHT22;1606;51.946;10.558;2023-03-01T02:30:50;0.00;99.90
3190;DHT22;1606;51.946;10.558;2023-03-01T02:33:51;0.00;99.90
3190;DHT22;1606;51.946;10.558;2023-03-01T02:36:20;-0.20;99.90
3190;DHT22;1606;51.946;10.558;2023-03-01T02:38:51;-0.20;99.90
3190;DHT22;1606;51.946;10.558;2023-03-01T02:41:20;-0.20;99.90
3190;DHT22;1606;51.946;10.558;2023-03-01T02:43:50;0.00;99.90
3190;DHT22;1606;51.946;10.558;2023-03-01T02:46:20;0.00;99.90
3190;DHT22;1606;51.946;10.558;2023-03-01T02:48:50;0.00;99.90
3190;DHT22;1606;51.946;10.558;2023-03-01T02:51:39;0.10;99.90
3190;DHT22;1606;51.946;10.558;2023-03-01T02:54:17;0.10;99.90
3190;DHT22;1606;51.946;10.558;2023-03-01T02:56:47;-0.10;99.90
3190;DHT22;1606;51.946;10.558;2023-03-01T02:59:20;0.00;99.90
3190;DHT22;1606;51.946;10.558;2023-03-01T03:01:48;-0.10;99.90
3190;DHT22;1606;51.946;10.558;2023-03-01T03:04:18;-0.10;99.90
3190;DHT22;1606;51.946;10.558;2023-03-01T03:06:48;-0.20;99.90
3190;DHT22;1606;51.946;10.558;2023-03-01T03:09:17;-0.10;99.90
3190;DHT22;1606;51.946;10.558;2023-03-01T03:11:45;0.00;99.90
3190;DHT22;1606;51.946;10.558;2023-03-01T03:14:15;0.00;99.90
3190;DHT22;1606;51.946;10.558;2023-03-01T03:16:45;-0.10;99.90
3190;DHT22;1606;51.946;10.558;2023-03-01T03:19:15;0.10;99.90
3190;DHT22;1606;51.946;10.558;2023-03-01T03:21:43;0.30;99.90
3190;DHT22;1606;51.946;10.558;2023-03-01T03:24:11;0.10;99.70
3190;DHT22;1606;51.946;10.558;2023-03-01T03:26:38;0.00;99.90
3190;DHT22;1606;51.946;10.558;2023-03-01T03:29:06;0.10;99.90
3190;DHT22;1606;51.946;10.558;2023-03-01T03:31:34;0.10;99.90
3190;DHT22;1606;51.946;10.558;2023-03-01T03:34:03;0.10;99.70
3190;DHT22;1606;51.946;10.558;2023-03-01T03:36:32;0.10;99.60
3190;DHT22;1606;51.946;10.558;2023-03-01T03:38:59;0.00;99.70
3190;DHT22;1606;51.946;10.558;2023-03-01T03:41:27;0.00;99.90
3190;DHT22;1606;51.946;10.558;2023-03-01T03:43:55;0.10;99.90
3190;DHT22;1606;51.946;10.558;2023-03-01T03:46:23;0.10;99.60
3190;DHT22;1606;51.946;10.558;2023-03-01T03:48:50;0.10;99.30
3190;DHT22;1606;51.946;10.558;2023-03-01T03:51:20;0.30;99.30
3190;DHT22;1606;51.946;10.558;2023-03-01T03:53:49;0.10;98.80
3190;DHT22;1606;51.946;10.558;2023-03-01T03:56:17;0.00;99.10
3190;DHT22;1606;51.946;10.558;2023-03-01T03:58:44;-0.10;98.90
3190;DHT22;1606;51.946;10.558;2023-03-01T04:01:12;-0.20;99.20
3190;DHT22;1606;51.946;10.558;2023-03-01T04:03:40;-0.30;99.50
3190;DHT22;1606;51.946;10.558;2023-03-01T04:06:08;-0.30;99.50
3190;DHT22;1606;51.946;10.558;2023-03-01T04:08:37;-0.60;99.50
3190;DHT22;1606;51.946;10.558;2023-03-01T04:11:05;-0.70;99.90
3190;DHT22;1606;51.946;10.558;2023-03-01T04:13:47;-0.70;99.90
3190;DHT22;1606;51.946;10.558;2023-03-01T04:16:15;-0.70;99.90
3190;DHT22;1606;51.946;10.558;2023-03-01T04:18:44;-0.70;99.90
3190;DHT22;1606;51.946;10.558;2023-03-01T04:21:12;-0.50;99.90
3190;DHT22;1606;51.946;10.558;2023-03-01T04:23:41;-0.50;99.90
3190;DHT22;1606;51.946;10.558;2023-03-01T04:26:09;-0.40;99.90
3190;DHT22;1606;51.946;10.558;2023-03-01T04:28:39;-0.20;99.90
3190;DHT22;1606;51.946;10.558;2023-03-01T04:31:11;-0.20;99.90
3190;DHT22;1606;51.946;10.558;2023-03-01T04:33:45;-0.20;99.90
3190;DHT22;1606;51.946;10.558;2023-03-01T04:36:16;-0.10;99.70
3190;DHT22;1606;51.946;10.558;2023-03-01T04:38:45;0.00;99.40
3190;DHT22;1606;51.946;10.558;2023-03-01T04:41:16;0.00;99.30
3190;DHT22;1606;51.946;10.558;2023-03-01T04:43:44;0.00;99.00
3190;DHT22;1606;51.946;10.558;2023-03-01T04:46:14;-0.20;98.70
3190;DHT22;1606;51.946;10.558;2023-03-01T04:48:43;-0.20;99.10
3190;DHT22;1606;51.946;10.558;2023-03-01T04:51:11;-0.30;98.90
3190;DHT22;1606;51.946;10.558;2023-03-01T04:53:41;-0.40;99.00
3190;DHT22;1606;51.946;10.558;2023-03-01T04:56:11;-0.50;99.30
3190;DHT22;1606;51.946;10.558;2023-03-01T04:58:42;-0.60;99.00
3190;DHT22;1606;51.946;10.558;2023-03-01T05:01:11;-0.60;99.40
3190;DHT22;1606;51.946;10.558;2023-03-01T05:03:42;-0.60;99.20
3190;DHT22;1606;51.946;10.558;2023-03-01T05:06:11;-0.70;99.40
3190;DHT22;1606;51.946;10.558;2023-03-01T05:08:40;-0.80;99.80
3190;DHT22;1606;51.946;10.558;2023-03-01T05:11:08;-0.90;99.90
3190;DHT22;1606;51.946;10.558;2023-03-01T05:13:39;-1.00;99.90
3190;DHT22;1606;51.946;10.558;2023-03-01T05:16:07;-1.10;99.90
3190;DHT22;1606;51.946;10.558;2023-03-01T05:18:39;-1.20;99.90
3190;DHT22;1606;51.946;10.558;2023-03-01T05:21:09;-1.10;99.90
3190;DHT22;1606;51.946;10.558;2023-03-01T05:23:37;-1.00;99.90
3190;DHT22;1606;51.946;10.558;2023-03-01T05:26:06;-0.80;99.90
3190;DHT22;1606;51.946;10.558;2023-03-01T05:28:52;-0.70;99.90
3190;DHT22;1606;51.946;10.558;2023-03-01T05:31:24;-0.70;99.90
3190;DHT22;1606;51.946;10.558;2023-03-01T05:33:52;-0.70;99.90
3190;DHT22;1606;51.946;10.558;2023-03-01T05:36:20;-0.80;99.90
3190;DHT22;1606;51.946;10.558;2023-03-01T05:38:48;-0.80;99.90
3190;DHT22;1606;51.946;10.558;2023-03-01T05:41:16;-0.70;99.90
3190;DHT22;1606;51.946;10.558;2023-03-01T05:43:44;-0.70;99.90
3190;DHT22;1606;51.946;10.558;2023-03-01T05:46:13;-0.60;99.90
3190;DHT22;1606;51.946;10.558;2023-03-01T05:48:41;-0.60;99.80
3190;DHT22;1606;51.946;10.558;2023-03-01T05:51:10;-0.70;99.80
3190;DHT22;1606;51.946;10.558;2023-03-01T05:53:38;-0.70;99.80
3190;DHT22;1606;51.946;10.558;2023-03-01T05:56:06;-0.80;99.90
3190;DHT22;1606;51.946;10.558;2023-03-01T05:58:34;-0.70;99.90
3190;DHT22;1606;51.946;10.558;2023-03-01T06:01:05;-0.70;99.80
3190;DHT22;1606;51.946;10.558;2023-03-01T06:03:34;-0.60;99.70
3190;DHT22;1606;51.946;10.558;2023-03-01T06:06:01;-0.70;99.50
3190;DHT22;1606;51.946;10.558;2023-03-01T06:08:29;-0.80;99.30
3190;DHT22;1606;51.946;10.558;2023-03-01T06:10:57;-1.00;99.40
3190;DHT22;1606;51.946;10.558;2023-03-01T06:13:25;-1.10;99.60
3190;DHT22;1606;51.946;10.558;2023-03-01T06:15:52;-1.20;99.90
3190;DHT22;1606;51.946;10.558;2023-03-01T06:18:21;-1.10;99.90
3190;DHT22;1606;51.946;10.558;2023-03-01T06:20:54;-0.90;99.90
3190;DHT22;1606;51.946;10.558;2023-03-01T06:23:22;-0.80;99.90
3190;DHT22;1606;51.946;10.558;2023-03-01T06:25:52;-0.80;99.80
3190;DHT22;1606;51.946;10.558;2023-03-01T06:28:19;-0.90;99.80
3190;DHT22;1606;51.946;10.558;2023-03-01T06:30:47;-0.90;99.90
3190;DHT22;1606;51.946;10.558;2023-03-01T06:33:15;-0.80;99.80
3190;DHT22;1606;51.946;10.558;2023-03-01T06:35:44;-0.80;99.90
3190;DHT22;1606;51.946;10.558;2023-03-01T06:38:13;-0.70;99.90
3190;DHT22;1606;51.946;10.558;2023-03-01T06:40:43;-0.70;99.60
3190;DHT22;1606;51.946;10.558;2023-03-01T06:43:11;-0.70;99.60
3190;DHT22;1606;51.946;10.558;2023-03-01T06:45:39;-0.70;99.70
3190;DHT22;1606;51.946;10.558;2023-03-01T06:48:08;-0.70;99.80
3190;DHT22;1606;51.946;10.558;2023-03-01T06:50:39;-0.60;99.80
3190;DHT22;1606;51.946;10.558;2023-03-01T06:53:07;-0.60;99.70
3190;DHT22;1606;51.946;10.558;2023-03-01T06:55:36;-0.50;99.60
3190;DHT22;1606;51.946;10.558;2023-03-01T06:58:03;-0.50;99.50
3190;DHT22;1606;51.946;10.558;2023-03-01T07:00:32;-0.40;99.40
3190;DHT22;1606;51.946;10.558;2023-03-01T07:03:00;-0.40;99.40
3190;DHT22;1606;51.946;10.558;2023-03-01T07:05:29;-0.30;99.40
3190;DHT22;1606;51.946;10.558;2023-03-01T07:07:57;-0.40;99.10
3190;DHT22;1606;51.946;10.558;2023-03-01T07:10:25;-0.40;99.30
3190;DHT22;1606;51.946;10.558;2023-03-01T07:12:56;-0.50;99.80
3190;DHT22;1606;51.946;10.558;2023-03-01T07:15:24;-0.50;99.80
3190;DHT22;1606;51.946;10.558;2023-03-01T07:17:52;-0.50;99.90
3190;DHT22;1606;51.946;10.558;2023-03-01T07:20:20;-0.50;99.90
3190;DHT22;1606;51.946;10.558;2023-03-01T07:22:51;-0.50;99.90
3190;DHT22;1606;51.946;10.558;2023-03-01T07:25:19;-0.50;99.90
3190;DHT22;1606;51.946;10.558;2023-03-01T07:27:49;-0.40;99.90
3190;DHT22;1606;51.946;10.558;2023-03-01T07:30:20;-0.40;99.90
3190;DHT22;1606;51.946;10.558;2023-03-01T07:32:48;-0.50;99.90
3190;DHT22;1606;51.946;10.558;2023-03-01T07:35:16;-0.40;99.90
3190;DHT22;1606;51.946;10.558;2023-03-01T07:37:45;-0.40;99.90
3190;DHT22;1606;51.946;10.558;2023-03-01T07:40:13;-0.50;99.90
3190;DHT22;1606;51.946;10.558;2023-03-01T07:42:40;-0.40;99.90
3190;DHT22;1606;51.946;10.558;2023-03-01T07:45:09;-0.40;99.90
3190;DHT22;1606;51.946;10.558;2023-03-01T07:47:38;-0.30;99.90
3190;DHT22;1606;51.946;10.558;2023-03-01T07:50:07;-0.10;99.90
3190;DHT22;1606;51.946;10.558;2023-03-01T07:52:35;-0.10;99.90
3190;DHT22;1606;51.946;10.558;2023-03-01T07:55:03;0.00;99.90
3190;DHT22;1606;51.946;10.558;2023-03-01T07:57:31;0.10;99.90
3190;DHT22;1606;51.946;10.558;2023-03-01T07:59:58;0.00;99.90
3190;DHT22;1606;51.946;10.558;2023-03-01T08:02:26;0.00;99.90
3190;DHT22;1606;51.946;10.558;2023-03-01T08:04:55;0.00;99.90
3190;DHT22;1606;51.946;10.558;2023-03-01T08:07:23;0.10;99.90
3190;DHT22;1606;51.946;10.558;2023-03-01T08:09:51;0.10;99.90
3190;DHT22;1606;51.946;10.558;2023-03-01T08:12:18;0.10;99.90
3190;DHT22;1606;51.946;10.558;2023-03-01T08:14:46;0.00;99.90
3190;DHT22;1606;51.946;10.558;2023-03-01T08:17:14;0.10;99.90
3190;DHT22;1606;51.946;10.558;2023-03-01T08:19:42;0.20;99.90
3190;DHT22;1606;51.946;10.558;2023-03-01T08:22:12;0.20;99.90
3190;DHT22;1606;51.946;10.558;2023-03-01T08:24:40;0.20;99.90
3190;DHT22;1606;51.946;10.558;2023-03-01T08:27:08;0.30;99.90
3190;DHT22;1606;51.946;10.558;2023-03-01T08:29:36;0.50;99.90
3190;DHT22;1606;51.946;10.558;2023-03-01T08:32:04;0.60;99.90
3190;DHT22;1606;51.946;10.558;2023-03-01T08:34:32;0.60;99.90
3190;DHT22;1606;51.946;10.558;2023-03-01T08:37:02;0.60;99.90
3190;DHT22;1606;51.946;10.558;2023-03-01T08:39:31;0.70;99.90
3190;DHT22;1606;51.946;10.558;2023-03-01T08:41:59;1.00;99.90
3190;DHT22;1606;51.946;10.558;2023-03-01T08:44:27;1.20;99.90
3190;DHT22;1606;51.946;10.558;2023-03-01T08:46:54;1.20;99.90
3190;DHT22;1606;51.946;10.558;2023-03-01T08:49:22;1.30;99.90
3190;DHT22;1606;51.946;10.558;2023-03-01T08:51:51;1.30;99.90
3190;DHT22;1606;51.946;10.558;2023-03-01T08:54:20;1.60;99.90
3190;DHT22;1606;51.946;10.558;2023-03-01T08:56:49;1.60;99.90
3190;DHT22;1606;51.946;10.558;2023-03-01T08:59:18;1.60;99.90
3190;DHT22;1606;51.946;10.558;2023-03-01T09:01:46;1.60;99.90
3190;DHT22;1606;51.946;10.558;2023-03-01T09:04:14;1.70;99.90
3190;DHT22;1606;51.946;10.558;2023-03-01T09:06:42;1.80;99.90
3190;DHT22;1606;51.946;10.558;2023-03-01T09:09:13;1.90;99.90
3190;DHT22;1606;51.946;10.558;2023-03-01T09:11:42;2.10;99.90
3190;DHT22;1606;51.946;10.558;2023-03-01T09:14:14;2.20;99.90
3190;DHT22;1606;51.946;10.558;2023-03-01T09:16:42;2.10;99.90
3190;DHT22;1606;51.946;10.558;2023-03-01T09:19:10;2.10;99.90
3190;DHT22;1606;51.946;10.558;2023-03-01T09:21:38;2.30;99.90
3190;DHT22;1606;51.946;10.558;2023-03-01T09:24:12;2.50;99.90
3190;DHT22;1606;51.946;10.558;2023-03-01T09:26:40;2.60;99.90
3190;DHT22;1606;51.946;10.558;2023-03-01T09:29:08;2.80;99.90
3190;DHT22;1606;51.946;10.558;2023-03-01T09:31:38;2.80;99.90
3190;DHT22;1606;51.946;10.558;2023-03-01T09:34:06;3.00;99.90
3190;DHT22;1606;51.946;10.558;2023-03-01T09:36:34;3.20;99.90
3190;DHT22;1606;51.946;10.558;2023-03-01T09:39:03;3.20;99.90
3190;DHT22;1606;51.946;10.558;2023-03-01T09:41:45;3.30;99.90
3190;DHT22;1606;51.946;10.558;2023-03-01T09:44:23;3.30;99.90
3190;DHT22;1606;51.946;10.558;2023-03-01T09:46:55;3.50;99.90
3190;DHT22;1606;51.946;10.558;2023-03-01T09:49:26;3.50;99.90
3190;DHT22;1606;51.946;10.558;2023-03-01T09:51:58;3.60;99.90
3190;DHT22;1606;51.946;10.558;2023-03-01T09:54:27;3.70;99.90
3190;DHT22;1606;51.946;10.558;2023-03-01T09:57:09;3.90;99.90
3190;DHT22;1606;51.946;10.558;2023-03-01T09:59:57;3.90;99.90
3190;DHT22;1606;51.946;10.558;2023-03-01T10:02:34;4.00;99.90
3190;DHT22;1606;51.946;10.558;2023-03-01T10:05:15;4.20;99.90
3190;DHT22;1606;51.946;10.558;2023-03-01T10:07:54;4.50;99.90
3190;DHT22;1606;51.946;10.558;2023-03-01T10:10:28;4.70;99.90
3190;DHT22;1606;51.946;10.558;2023-03-01T10:12:57;4.60;99.90
3190;DHT22;1606;51.946;10.558;2023-03-01T10:15:34;4.80;99.90
3190;DHT22;1606;51.946;10.558;2023-03-01T10:18:09;5.00;99.90
3190;DHT22;1606;51.946;10.558;2023-03-01T10:20:45;5.20;99.90
3190;DHT22;1606;51.946;10.558;2023-03-01T10:23:14;5.30;99.90
3190;DHT22;1606;51.946;10.558;2023-03-01T10:25:51;5.30;99.90
3190;DHT22;1606;51.946;10.558;2023-03-01T10:28:25;5.50;99.90
3190;DHT22;1606;51.946;10.558;2023-03-01T10:30:54;5.60;99.30
3190;DHT22;1606;51.946;10.558;2023-03-01T10:33:27;5.70;99.90
3190;DHT22;1606;51.946;10.558;2023-03-01T10:35:56;6.00;99.80
3190;DHT22;1606;51.946;10.558;2023-03-01T10:38:24;6.20;99.10
3190;DHT22;1606;51.946;10.558;2023-03-01T10:40:55;6.30;97.70
3190;DHT22;1606;51.946;10.558;2023-03-01T10:43:25;6.40;97.80
3190;DHT22;1606;51.946;10.558;2023-03-01T10:45:53;6.40;97.40
3190;DHT22;1606;51.946;10.558;2023-03-01T10:48:23;6.70;97.50
3190;DHT22;1606;51.946;10.558;2023-03-01T10:51:06;6.80;97.60
3190;DHT22;1606;51.946;10.558;2023-03-01T10:53:36;6.90;95.40
3190;DHT22;1606;51.946;10.558;2023-03-01T10:56:06;6.80;94.80
3190;DHT22;1606;51.946;10.558;2023-03-01T10:58:36;6.70;95.40
3190;DHT22;1606;51.946;10.558;2023-03-01T11:01:06;6.70;94.80
3190;DHT22;1606;51.946;10.558;2023-03-01T11:04:10;6.80;94.10
3190;DHT22;1606;51.946;10.558;2023-03-01T11:06:40;6.90;94.60
3190;DHT22;1606;51.946;10.558;2023-03-01T11:09:17;7.20;94.40
3190;DHT22;1606;51.946;10.558;2023-03-01T11:11:45;7.30;93.50
3190;DHT22;1606;51.946;10.558;2023-03-01T11:14:16;7.50;93.10
3190;DHT22;1606;51.946;10.558;2023-03-01T11:17:00;7.60;92.50
3190;DHT22;1606;51.946;10.558;2023-03-01T11:19:29;7.80;91.20
3190;DHT22;1606;51.946;10.558;2023-03-01T11:22:02;8.00;90.80
3190;DHT22;1606;51.946;10.558;2023-03-01T11:24:36;8.20;90.10
3190;DHT22;1606;51.946;10.558;2023-03-01T11:27:08;8.20;89.10
3190;DHT22;1606;51.946;10.558;2023-03-01T11:29:43;8.20;90.30
3190;DHT22;1606;51.946;10.558;2023-03-01T11:32:15;8.40;89.60
3190;DHT22;1606;51.946;10.558;2023-03-01T11:34:47;8.50;88.80
3190;DHT22;1606;51.946;10.558;2023-03-01T11:37:32;8.80;88.30
3190;DHT22;1606;51.946;10.558;2023-03-01T11:40:10;8.70;87.00
3190;DHT22;1606;51.946;10.558;2023-03-01T11:42:46;8.50;88.10
3190;DHT22;1606;51.946;10.558;2023-03-01T11:45:16;8.30;89.20
3190;DHT22;1606;51.946;10.558;2023-03-01T11:47:54;8.40;90.10
3190;DHT22;1606;51.946;10.558;2023-03-01T11:50:29;8.50;89.30
3190;DHT22;1606;51.946;10.558;2023-03-01T11:53:27;8.50;87.50
3190;DHT22;1606;51.946;10.558;2023-03-01T11:56:05;8.50;88.50
3190;DHT22;1606;51.946;10.558;2023-03-01T11:58:46;8.90;88.40
3190;DHT22;1606;51.946;10.558;2023-03-01T12:01:27;9.30;86.00
3190;DHT22;1606;51.946;10.558;2023-03-01T12:04:21;9.20;85.10
3190;DHT22;1606;51.946;10.558;2023-03-01T12:06:57;9.30;86.00
3190;DHT22;1606;51.946;10.558;2023-03-01T12:09:38;9.20;83.40
3190;DHT22;1606;51.946;10.558;2023-03-01T12:12:30;9.00;86.50
3190;DHT22;1606;51.946;10.558;2023-03-01T12:15:29;9.40;84.20
3190;DHT22;1606;51.946;10.558;2023-03-01T12:18:18;9.40;83.10
3190;DHT22;1606;51.946;10.558;2023-03-01T12:20:54;9.40;81.60
3190;DHT22;1606;51.946;10.558;2023-03-01T12:23:45;9.50;82.90
3190;DHT22;1606;51.946;10.558;2023-03-01T12:26:26;9.80;83.10
3190;DHT22;1606;51.946;10.558;2023-03-01T12:29:11;9.60;82.10
3190;DHT22;1606;51.946;10.558;2023-03-01T12:32:00;9.30;81.10
3190;DHT22;1606;51.946;10.558;2023-03-01T12:34:51;9.50;82.20
3190;DHT22;1606;51.946;10.558;2023-03-01T12:37:29;9.70;80.00
3190;DHT22;1606;51.946;10.558;2023-03-01T12:40:18;9.80;80.80
3190;DHT22;1606;51.946;10.558;2023-03-01T12:42:59;9.90;79.60
3190;DHT22;1606;51.946;10.558;2023-03-01T12:45:39;9.80;80.90
3190;DHT22;1606;51.946;10.558;2023-03-01T12:51:06;9.60;81.70
3190;DHT22;1606;51.946;10.558;2023-03-01T12:53:36;9.80;77.80
3190;DHT22;1606;51.946;10.558;2023-03-01T12:56:08;9.70;80.30
3190;DHT22;1606;51.946;10.558;2023-03-01T12:58:49;9.70;79.60
3190;DHT22;1606;51.946;10.558;2023-03-01T13:01:35;9.80;79.70
3190;DHT22;1606;51.946;10.558;2023-03-01T13:04:21;10.00;79.50
3190;DHT22;1606;51.946;10.558;2023-03-01T13:07:01;10.00;79.60
3190;DHT22;1606;51.946;10.558;2023-03-01T13:09:37;9.90;79.30
3190;DHT22;1606;51.946;10.558;2023-03-01T13:12:45;9.80;80.00
3190;DHT22;1606;51.946;10.558;2023-03-01T13:15:32;9.80;80.80
3190;DHT22;1606;51.946;10.558;2023-03-01T13:18:03;10.30;79.80
3190;DHT22;1606;51.946;10.558;2023-03-01T13:20:34;10.40;78.40
3190;DHT22;1606;51.946;10.558;2023-03-01T13:23:24;10.30;79.10
3190;DHT22;1606;51.946;10.558;2023-03-01T13:26:04;10.30;79.00
3190;DHT22;1606;51.946;10.558;2023-03-01T13:28:46;10.00;80.00
3190;DHT22;1606;51.946;10.558;2023-03-01T13:34:46;10.30;77.00
3190;DHT22;1606;51.946;10.558;2023-03-01T13:37:33;10.40;77.10
3190;DHT22;1606;51.946;10.558;2023-03-01T13:42:46;10.10;78.90
3190;DHT22;1606;51.946;10.558;2023-03-01T13:45:36;10.10;78.00
3190;DHT22;1606;51.946;10.558;2023-03-01T13:48:09;10.10;79.20
3190;DHT22;1606;51.946;10.558;2023-03-01T13:50:48;10.10;79.60
3190;DHT22;1606;51.946;10.558;2023-03-01T13:53:18;10.20;80.30
3190;DHT22;1606;51.946;10.558;2023-03-01T13:55:49;10.10;79.70
3190;DHT22;1606;51.946;10.558;2023-03-01T13:58:24;9.90;77.80
3190;DHT22;1606;51.946;10.558;2023-03-01T14:00:57;9.90;79.60
3190;DHT22;1606;51.946;10.558;2023-03-01T14:03:27;9.90;80.20
3190;DHT22;1606;51.946;10.558;2023-03-01T14:06:02;9.80;79.90
3190;DHT22;1606;51.946;10.558;2023-03-01T14:08:44;9.80;81.30
3190;DHT22;1606;51.946;10.558;2023-03-01T14:11:48;9.70;79.90
3190;DHT22;1606;51.946;10.558;2023-03-01T14:17:31;9.10;82.30
3190;DHT22;1606;51.946;10.558;2023-03-01T14:20:07;9.10;83.00
3190;DHT22;1606;51.946;10.558;2023-03-01T14:22:41;9.10;82.30
3190;DHT22;1606;51.946;10.558;2023-03-01T14:25:24;9.20;82.20
3190;DHT22;1606;51.946;10.558;2023-03-01T14:28:00;9.20;80.80
3190;DHT22;1606;51.946;10.558;2023-03-01T14:30:34;9.40;79.60
3190;DHT22;1606;51.946;10.558;2023-03-01T14:33:06;9.10;80.70
3190;DHT22;1606;51.946;10.558;2023-03-01T14:35:35;8.90;82.30
3190;DHT22;1606;51.946;10.558;2023-03-01T14:38:05;9.10;81.40
3190;DHT22;1606;51.946;10.558;2023-03-01T14:40:34;9.20;80.00
3190;DHT22;1606;51.946;10.558;2023-03-01T14:43:10;8.90;80.20
3190;DHT22;1606;51.946;10.558;2023-03-01T14:45:38;8.90;81.40
3190;DHT22;1606;51.946;10.558;2023-03-01T14:48:07;8.60;79.80
3190;DHT22;1606;51.946;10.558;2023-03-01T14:50:40;8.40;81.70
3190;DHT22;1606;51.946;10.558;2023-03-01T14:53:17;8.70;81.90
3190;DHT22;1606;51.946;10.558;2023-03-01T14:55:47;8.90;79.60
3190;DHT22;1606;51.946;10.558;2023-03-01T14:58:19;8.90;80.80
3190;DHT22;1606;51.946;10.558;2023-03-01T15:00:50;8.80;80.80
3190;DHT22;1606;51.946;10.558;2023-03-01T15:03:24;8.70;81.00
3190;DHT22;1606;51.946;10.558;2023-03-01T15:05:53;8.60;81.50
3190;DHT22;1606;51.946;10.558;2023-03-01T15:08:24;8.60;81.30
3190;DHT22;1606;51.946;10.558;2023-03-01T15:11:00;8.50;82.40
3190;DHT22;1606;51.946;10.558;2023-03-01T15:13:31;8.60;83.10
3190;DHT22;1606;51.946;10.558;2023-03-01T15:16:18;8.60;81.20
3190;DHT22;1606;51.946;10.558;2023-03-01T15:18:48;8.50;81.50
3190;DHT22;1606;51.946;10.558;2023-03-01T15:21:20;8.50;80.00
3190;DHT22;1606;51.946;10.558;2023-03-01T15:23:52;8.40;79.40
3190;DHT22;1606;51.946;10.558;2023-03-01T15:26:29;8.30;80.70
3190;DHT22;1606;51.946;10.558;2023-03-01T15:28:59;8.40;82.20
3190;DHT22;1606;51.946;10.558;2023-03-01T15:31:30;8.40;81.90
3190;DHT22;1606;51.946;10.558;2023-03-01T15:34:09;8.50;81.80
3190;DHT22;1606;51.946;10.558;2023-03-01T15:36:41;8.30;81.40
3190;DHT22;1606;51.946;10.558;2023-03-01T15:39:35;8.30;81.10
3190;DHT22;1606;51.946;10.558;2023-03-01T15:42:07;8.30;82.10
3190;DHT22;1606;51.946;10.558;2023-03-01T15:44:36;8.40;82.20
3190;DHT22;1606;51.946;10.558;2023-03-01T15:47:26;8.30;82.10
3190;DHT22;1606;51.946;10.558;2023-03-01T15:49:59;8.20;82.00
3190;DHT22;1606;51.946;10.558;2023-03-01T15:52:31;8.20;83.20
3190;DHT22;1606;51.946;10.558;2023-03-01T15:55:05;8.10;82.70
3190;DHT22;1606;51.946;10.558;2023-03-01T15:57:33;8.00;83.30
3190;DHT22;1606;51.946;10.558;2023-03-01T16:00:01;8.00;82.60
3190;DHT22;1606;51.946;10.558;2023-03-01T16:02:38;7.90;82.10
3190;DHT22;1606;51.946;10.558;2023-03-01T16:05:09;8.10;82.20
3190;DHT22;1606;51.946;10.558;2023-03-01T16:07:41;8.00;83.20
3190;DHT22;1606;51.946;10.558;2023-03-01T16:10:10;8.00;83.40
3190;DHT22;1606;51.946;10.558;2023-03-01T16:12:38;8.10;83.50
3190;DHT22;1606;51.946;10.558;2023-03-01T16:15:14;8.20;83.20
3190;DHT22;1606;51.946;10.558;2023-03-01T16:17:44;8.20;83.70
3190;DHT22;1606;51.946;10.558;2023-03-01T16:20:13;8.00;84.10
3190;DHT22;1606;51.946;10.558;2023-03-01T16:22:54;8.10;84.70
3190;DHT22;1606;51.946;10.558;2023-03-01T16:25:23;8.20;83.00
3190;DHT22;1606;51.946;10.558;2023-03-01T16:27:51;8.20;82.80
3190;DHT22;1606;51.946;10.558;2023-03-01T16:30:21;8.20;82.90
3190;DHT22;1606;51.946;10.558;2023-03-01T16:32:49;8.20;83.10
3190;DHT22;1606;51.946;10.558;2023-03-01T16:35:19;8.00;83.40
3190;DHT22;1606;51.946;10.558;2023-03-01T16:37:48;7.90;83.70
3190;DHT22;1606;51.946;10.558;2023-03-01T16:40:18;7.90;84.20